キエフ/ボリースピリ の空港の天気 - METARとTAF

ボリースピリ国際空港(キエフ) ( UKBB / KBP ) - ウクライナ ボリスピリ (キエフ近郊)
飛行場実況気象(Metar)
観測時間06/21 07:00 EEST (06/21 04:00 UTC)
風向・風速不定 1m/s
視程10km以上
天気現象
なし
気温19℃
湿度73%
気圧1018hPa
METARUKBB 210400Z VRB01MPS CAVOK 19/14 Q1018 R88/D NOSIG
過去の天気等 Google飛行場航空写真 Wunderground天気予報

過去48時間のMETAR

飛行場予報(TAF)
発表時間: 6/21 02:00 EEST (6/20 23:00 UTC)
予報対象時間: 21日3時 EEST ~ 22日3時 EEST
風向・風速不定 1m/s
視程10km以上
なし
21日9時 EEST ~ 21日11時 EEST に徐々に
風向・風速南西 4m/s 瞬間風速 9m/s
TAF UKBB 202300Z 2100/2124 VRB01MPS CAVOK TX30/2112Z TN16/2102Z
BECMG 2106/2108 22004G09MPS